Time;durP1;ratioP1;P1;durP2;ratioP2;P2;SDS_P1;SDS_P2;PMS_P1;PMS_P2;Temp;Humidity;BMP_temperature;BMP_pressure;BME280_temperature;BME280_humidity;BME280_pressure;Samples;Min_cycle;Max_cycle;Signal;HPM_P1;HPM_P2
2021/03/23 00:02:03;;;;;;;2.5;1.8;;;;;;;;;;;;;
2021/03/23 00:04:28;;;;;;;2.7;1.6;;;;;;;;;;;;;
2021/03/23 00:06:53;;;;;;;3.7;2.1;;;;;;;;;;;;;
2021/03/23 00:09:18;;;;;;;1.5;1.4;;;;;;;;;;;;;
2021/03/23 00:11:50;;;;;;;2.7;1.7;;;;;;;;;;;;;
2021/03/23 00:14:22;;;;;;;3.9;2.3;;;;;;;;;;;;;
2021/03/23 00:16:57;;;;;;;2.2;1.6;;;;;;;;;;;;;
2021/03/23 00:19:26;;;;;;;3.1;2.2;;;;;;;;;;;;;
2021/03/23 00:21:54;;;;;;;1.8;1.5;;;;;;;;;;;;;
2021/03/23 00:24:19;;;;;;;3;2;;;;;;;;;;;;;
2021/03/23 00:26:44;;;;;;;6.6;2.4;;;;;;;;;;;;;
2021/03/23 00:29:11;;;;;;;9;1.8;;;;;;;;;;;;;
2021/03/23 00:31:36;;;;;;;5;1.9;;;;;;;;;;;;;
2021/03/23 00:34:01;;;;;;;1.3;1.1;;;;;;;;;;;;;
2021/03/23 00:36:26;;;;;;;5.9;2.5;;;;;;;;;;;;;
2021/03/23 00:38:52;;;;;;;1.3;1.2;;;;;;;;;;;;;
2021/03/23 00:41:17;;;;;;;2.6;1.6;;;;;;;;;;;;;
2021/03/23 00:43:42;;;;;;;5.9;1.7;;;;;;;;;;;;;
2021/03/23 00:46:07;;;;;;;3.5;2.1;;;;;;;;;;;;;
2021/03/23 00:48:33;;;;;;;2;1.3;;;;;;;;;;;;;
2021/03/23 00:50:58;;;;;;;2.7;2;;;;;;;;;;;;;
2021/03/23 00:53:24;;;;;;;3.6;1.4;;;;;;;;;;;;;
2021/03/23 00:55:49;;;;;;;7.8;2;;;;;;;;;;;;;
2021/03/23 00:58:14;;;;;;;2.8;1.7;;;;;;;;;;;;;
2021/03/23 01:00:40;;;;;;;2.9;1.6;;;;;;;;;;;;;
2021/03/23 01:03:06;;;;;;;1.2;1.1;;;;;;;;;;;;;
2021/03/23 01:05:31;;;;;;;2.5;1.3;;;;;;;;;;;;;
2021/03/23 01:07:58;;;;;;;2.4;1.6;;;;;;;;;;;;;
2021/03/23 01:10:23;;;;;;;3.7;2;;;;;;;;;;;;;
2021/03/23 01:12:50;;;;;;;1.6;1.4;;;;;;;;;;;;;
2021/03/23 01:15:15;;;;;;;1.8;1.4;;;;;;;;;;;;;
2021/03/23 01:17:46;;;;;;;2.4;1.1;;;;;;;;;;;;;
2021/03/23 01:20:14;;;;;;;1.8;1.4;;;;;;;;;;;;;
2021/03/23 01:22:39;;;;;;;4.6;1.9;;;;;;;;;;;;;
2021/03/23 01:25:04;;;;;;;1.6;1.4;;;;;;;;;;;;;
2021/03/23 01:27:30;;;;;;;4.4;1.4;;;;;;;;;;;;;
2021/03/23 01:29:55;;;;;;;4.1;1.9;;;;;;;;;;;;;
2021/03/23 01:32:20;;;;;;;2.3;1.6;;;;;;;;;;;;;
2021/03/23 01:34:46;;;;;;;4.1;1.3;;;;;;;;;;;;;
2021/03/23 01:37:11;;;;;;;1.8;1.5;;;;;;;;;;;;;
2021/03/23 01:39:38;;;;;;;1.2;1.1;;;;;;;;;;;;;
2021/03/23 01:42:03;;;;;;;3.2;1.6;;;;;;;;;;;;;
2021/03/23 01:44:28;;;;;;;2.5;1.7;;;;;;;;;;;;;
2021/03/23 01:46:53;;;;;;;1.9;1.4;;;;;;;;;;;;;
2021/03/23 01:49:18;;;;;;;1.6;1.4;;;;;;;;;;;;;
2021/03/23 01:51:44;;;;;;;1.7;1.4;;;;;;;;;;;;;
2021/03/23 01:54:10;;;;;;;1.6;1.2;;;;;;;;;;;;;
2021/03/23 01:56:35;;;;;;;1.5;1.2;;;;;;;;;;;;;
2021/03/23 01:59:00;;;;;;;2.1;1.7;;;;;;;;;;;;;
2021/03/23 02:01:25;;;;;;;12.2;2.6;;;;;;;;;;;;;
2021/03/23 02:03:51;;;;;;;1.3;1.2;;;;;;;;;;;;;
2021/03/23 02:06:16;;;;;;;2.8;1.6;;;;;;;;;;;;;
2021/03/23 02:08:42;;;;;;;2.6;1.3;;;;;;;;;;;;;
2021/03/23 02:11:07;;;;;;;5.9;1.7;;;;;;;;;;;;;
2021/03/23 02:13:34;;;;;;;2.3;1.7;;;;;;;;;;;;;
2021/03/23 02:16:00;;;;;;;2.7;1.9;;;;;;;;;;;;;
2021/03/23 02:18:27;;;;;;;2.3;1.5;;;;;;;;;;;;;
2021/03/23 02:20:52;;;;;;;2.3;1.7;;;;;;;;;;;;;
2021/03/23 02:23:17;;;;;;;4.3;1.6;;;;;;;;;;;;;
2021/03/23 02:25:42;;;;;;;2.1;1.8;;;;;;;;;;;;;
2021/03/23 02:28:07;;;;;;;4.2;2.3;;;;;;;;;;;;;
2021/03/23 02:30:35;;;;;;;2.3;1.6;;;;;;;;;;;;;
2021/03/23 02:33:01;;;;;;;3.1;1.6;;;;;;;;;;;;;
2021/03/23 02:35:26;;;;;;;3.3;1.3;;;;;;;;;;;;;
2021/03/23 02:37:51;;;;;;;4.5;1.8;;;;;;;;;;;;;
2021/03/23 03:51:50;;;;;;;2.3;1.5;;;;;;;;;;;;;
2021/03/23 03:54:15;;;;;;;3.7;1.6;;;;;;;;;;;;;
2021/03/23 03:56:41;;;;;;;1.3;1;;;;;;;;;;;;;
2021/03/23 03:59:06;;;;;;;3;1.3;;;;;;;;;;;;;
2021/03/23 04:02:30;;;;;;;1.9;1.2;;;;;;;1.6;83.57031;943.6519;;;;
2021/03/23 04:04:55;;;;;;;2.8;1.3;;;;;;;1.4;83.7793;943.7062;;;;
2021/03/23 04:07:22;;;;;;;2.5;1.7;;;;;;;1.32;84.32031;943.726;;;;
2021/03/23 04:09:47;;;;;;;2.2;1.2;;;;;;;1.43;84.34375;943.764;;;;
2021/03/23 04:12:17;;;;;;;3.1;1.5;;;;;;;1.62;84.00098;943.8024;;;;
2021/03/23 04:14:47;;;;;;;2.4;1.1;;;;;;;1.7;83.51367;943.7706;;;;
2021/03/23 04:17:21;;;;;;;1.8;1.1;;;;;;;1.82;83.15625;943.8137;;;;
2021/03/23 04:19:52;;;;;;;3.2;1.3;;;;;;;1.85;83.0498;943.7446;;;;
2021/03/23 04:22:17;;;;;;;2.5;1.1;;;;;;;1.77;83.13672;943.8447;;;;
2021/03/23 04:24:47;;;;;;;2.3;1.3;;;;;;;1.85;83.0498;943.8114;;;;
2021/03/23 04:27:17;;;;;;;1.2;0.9;;;;;;;1.74;82.79395;943.8117;;;;
2021/03/23 04:29:42;;;;;;;0.9;0.8;;;;;;;1.71;82.72168;943.8528;;;;
2021/03/23 04:32:11;;;;;;;1.1;0.9;;;;;;;1.79;82.64648;943.771;;;;
2021/03/23 04:34:36;;;;;;;2.4;1.3;;;;;;;1.6;82.58887;943.8543;;;;
2021/03/23 04:37:05;;;;;;;2.5;1.6;;;;;;;1.62;82.91602;943.8394;;;;
2021/03/23 04:39:30;;;;;;;1.2;1.1;;;;;;;1.68;82.93848;943.8117;;;;
2021/03/23 04:41:57;;;;;;;2.4;1.7;;;;;;;1.79;82.75977;943.9025;;;;
2021/03/23 04:44:22;;;;;;;5;1.3;;;;;;;1.83;82.70117;943.9269;;;;
2021/03/23 04:46:49;;;;;;;2.2;1.2;;;;;;;1.91;82.46973;943.9395;;;;
2021/03/23 04:49:14;;;;;;;2;1.5;;;;;;;1.98;82.49414;943.9877;;;;
2021/03/23 04:51:41;;;;;;;0.9;0.9;;;;;;;1.83;82.52051;944.0215;;;;
2021/03/23 04:54:06;;;;;;;1.7;1;;;;;;;1.79;82.73535;944.019;;;;
2021/03/23 04:56:31;;;;;;;2.5;0.9;;;;;;;1.74;83.10742;944.0457;;;;
2021/03/23 04:58:56;;;;;;;1.4;0.8;;;;;;;1.76;83.14551;943.9669;;;;
2021/03/23 05:01:23;;;;;;;0.9;0.9;;;;;;;1.84;83.0498;944.0684;;;;
2021/03/23 05:03:48;;;;;;;1.3;1.2;;;;;;;1.86;82.47168;943.9698;;;;
2021/03/23 05:06:13;;;;;;;2;1.4;;;;;;;1.84;82.43457;944.0245;;;;
2021/03/23 05:08:40;;;;;;;2.1;1.1;;;;;;;1.87;82.29492;944.0669;;;;
2021/03/23 05:11:05;;;;;;;1.4;1;;;;;;;1.87;81.63477;944.037;;;;
2021/03/23 05:13:35;;;;;;;1.7;1.3;;;;;;;1.9;81.38184;943.9899;;;;
2021/03/23 05:16:03;;;;;;;3.7;1.1;;;;;;;1.92;81.28516;944.0695;;;;
2021/03/23 05:18:33;;;;;;;1.1;0.9;;;;;;;2.02;81.24805;944.0847;;;;
2021/03/23 05:20:59;;;;;;;3.5;1.4;;;;;;;2.04;81.0625;944.075;;;;
2021/03/23 05:23:29;;;;;;;2.5;1;;;;;;;2;81.21094;944.0346;;;;
2021/03/23 05:25:54;;;;;;;1.3;1.1;;;;;;;2.06;81.31055;944.046;;;;
2021/03/23 05:28:24;;;;;;;0.9;0.8;;;;;;;2.09;80.8252;944.0829;;;;
2021/03/23 05:30:56;;;;;;;1.1;1;;;;;;;2.14;80.58789;944.1279;;;;
2021/03/23 05:33:20;;;;;;;1.9;1;;;;;;;2.01;80.76465;944.1624;;;;
2021/03/23 05:35:47;;;;;;;2.1;1.3;;;;;;;2.1;80.79297;944.1308;;;;
2021/03/23 05:38:12;;;;;;;1.8;1.1;;;;;;;2.19;80.41699;944.1301;;;;
2021/03/23 05:40:39;;;;;;;4.3;1.8;;;;;;;2.27;80.13184;944.2603;;;;
2021/03/23 05:43:05;;;;;;;2.8;1.5;;;;;;;2.29;80.17969;944.2967;;;;
2021/03/23 05:45:30;;;;;;;1.8;1.3;;;;;;;2.33;80.12109;944.3553;;;;
2021/03/23 05:47:55;;;;;;;1.1;0.9;;;;;;;2.29;80.10156;944.3831;;;;
2021/03/23 05:50:23;;;;;;;3.6;2;;;;;;;2.25;79.81445;944.4384;;;;
2021/03/23 05:52:48;;;;;;;1.7;1.2;;;;;;;2.18;79.77832;944.4738;;;;
2021/03/23 05:55:13;;;;;;;2.6;1.2;;;;;;;2.15;79.4375;944.4417;;;;
2021/03/23 05:57:39;;;;;;;2.4;0.9;;;;;;;2.1;79.58398;944.48;;;;
2021/03/23 06:00:04;;;;;;;1.5;1.2;;;;;;;2.04;79.9082;944.447;;;;
2021/03/23 06:02:29;;;;;;;2.8;1.5;;;;;;;1.97;80.40039;944.3674;;;;
2021/03/23 06:04:54;;;;;;;1.6;1.5;;;;;;;1.97;80.6123;944.4955;;;;
2021/03/23 06:07:20;;;;;;;1.3;1.1;;;;;;;1.96;80.63379;944.5184;;;;
2021/03/23 06:09:45;;;;;;;3.6;1.9;;;;;;;2.06;80.42676;944.536;;;;
2021/03/23 06:12:10;;;;;;;1.5;1.4;;;;;;;2.13;80.14941;944.5698;;;;
2021/03/23 06:14:36;;;;;;;1.8;1.4;;;;;;;2.17;79.88867;944.6096;;;;
2021/03/23 06:17:06;;;;;;;1.4;1;;;;;;;2.16;80.13379;944.5955;;;;
2021/03/23 06:19:32;;;;;;;2.6;1.5;;;;;;;2.16;80.24414;944.6408;;;;
2021/03/23 06:21:59;;;;;;;2.3;1.6;;;;;;;2.23;80.21289;944.6872;;;;
2021/03/23 06:24:24;;;;;;;2.7;1.9;;;;;;;2.22;79.97559;944.6505;;;;
2021/03/23 06:26:50;;;;;;;2.9;2.2;;;;;;;2.06;79.82422;944.7178;;;;
2021/03/23 06:29:15;;;;;;;2.9;1.8;;;;;;;1.93;79.77734;944.7054;;;;
2021/03/23 06:31:41;;;;;;;8.2;1.9;;;;;;;2.05;79.83301;944.8301;;;;
2021/03/23 06:34:06;;;;;;;3.7;1.8;;;;;;;2.08;79.66895;944.757;;;;
2021/03/23 06:36:32;;;;;;;3.6;2.1;;;;;;;2.17;79.05859;944.8205;;;;
2021/03/23 06:38:57;;;;;;;5.1;2.4;;;;;;;2.21;79.12305;944.8379;;;;
2021/03/23 06:41:24;;;;;;;3.4;2.4;;;;;;;2.47;78.05176;944.7789;;;;
2021/03/23 06:43:49;;;;;;;2.6;1.6;;;;;;;2.42;77.57129;944.7764;;;;
2021/03/23 06:46:16;;;;;;;5.4;2.1;;;;;;;2.59;77.70508;944.7633;;;;
2021/03/23 06:48:43;;;;;;;2.8;1.7;;;;;;;2.75;76.5332;944.6924;;;;
2021/03/23 06:51:08;;;;;;;5.4;2.3;;;;;;;2.78;75.64258;944.6682;;;;
2021/03/23 06:53:33;;;;;;;7.1;2.3;;;;;;;2.81;75.41211;944.6849;;;;
2021/03/23 06:55:59;;;;;;;10.5;2.8;;;;;;;2.7;75.50488;944.7405;;;;
2021/03/23 06:58:24;;;;;;;4.5;2.1;;;;;;;2.98;75.91406;944.7559;;;;
2021/03/23 07:00:50;;;;;;;7.6;3;;;;;;;3.14;73.77539;944.7612;;;;
2021/03/23 07:03:15;;;;;;;2.2;1.7;;;;;;;3.43;72.88184;944.7834;;;;
2021/03/23 07:05:42;;;;;;;5.1;2.4;;;;;;;3.69;70.54297;944.7231;;;;
2021/03/23 07:08:07;;;;;;;12.5;1.4;;;;;;;3.66;69.47266;944.8047;;;;
2021/03/23 07:10:32;;;;;;;3;1.8;;;;;;;3.57;70.50293;944.7775;;;;
2021/03/23 07:12:58;;;;;;;3.1;2;;;;;;;3.81;69.44043;944.8801;;;;
2021/03/23 07:15:31;;;;;;;5.7;1.9;;;;;;;3.87;68.57324;944.95;;;;
2021/03/23 07:17:56;;;;;;;3;1.2;;;;;;;3.97;68.41016;944.9205;;;;
2021/03/23 07:20:21;;;;;;;5;2.4;;;;;;;4.33;67.78125;944.8535;;;;
2021/03/23 07:22:47;;;;;;;3;1.6;;;;;;;4.45;66.45996;944.9378;;;;
2021/03/23 07:25:12;;;;;;;1.6;1.3;;;;;;;4.28;67.07617;944.9476;;;;
2021/03/23 07:27:37;;;;;;;3.2;1.5;;;;;;;4.28;67.72949;944.9877;;;;
2021/03/23 07:30:04;;;;;;;2.5;1.5;;;;;;;4.4;66.57715;944.8848;;;;
2021/03/23 07:32:30;;;;;;;2.4;1.5;;;;;;;4.7;66.00391;944.9825;;;;
2021/03/23 07:34:57;;;;;;;2.1;1.4;;;;;;;4.95;64.4209;945.0264;;;;
2021/03/23 07:37:24;;;;;;;2.1;1;;;;;;;5.2;64.93066;945.002;;;;
2021/03/23 07:39:49;;;;;;;1.3;1;;;;;;;5.33;63.31543;945.0109;;;;
2021/03/23 07:42:14;;;;;;;3.9;1.7;;;;;;;5.47;62.96484;945.0096;;;;
2021/03/23 07:44:39;;;;;;;2.4;1.4;;;;;;;5.18;62.93262;944.9522;;;;
2021/03/23 07:47:04;;;;;;;4.9;1.3;;;;;;;5.61;63.35742;945.0279;;;;
2021/03/23 07:49:31;;;;;;;2.3;1.1;;;;;;;5.53;62.11523;944.9612;;;;
2021/03/23 07:51:54;;;;;;;2.8;1.5;;;;;;;5.76;61.63965;944.96;;;;
2021/03/23 07:54:20;;;;;;;1.7;1.3;;;;;;;6.27;59.38477;945.0023;;;;
2021/03/23 07:56:45;;;;;;;4.1;1.6;;;;;;;7.23;57.08203;944.8967;;;;
2021/03/23 07:59:10;;;;;;;2.8;1.4;;;;;;;7.29;55.61719;944.9334;;;;
2021/03/23 08:01:36;;;;;;;2.8;1.4;;;;;;;8.31;52.01074;944.8373;;;;
2021/03/23 08:04:01;;;;;;;5.7;1.1;;;;;;;10.2;48.30469;944.9207;;;;
2021/03/23 08:06:25;;;;;;;1.9;0.9;;;;;;;10.88;45.03223;944.7797;;;;
2021/03/23 08:08:50;;;;;;;1.4;1;;;;;;;10.06;45.49512;944.9688;;;;
2021/03/23 08:11:18;;;;;;;2;1.1;;;;;;;10.53;46.99414;944.962;;;;
2021/03/23 08:13:43;;;;;;;2.8;0.8;;;;;;;11.55;43.84375;944.8019;;;;
2021/03/23 08:16:12;;;;;;;2;0.9;;;;;;;12.4;43.06836;944.9105;;;;
2021/03/23 08:18:36;;;;;;;1.4;1;;;;;;;12.8;40.89355;944.8074;;;;
2021/03/23 08:21:01;;;;;;;2.5;1.3;;;;;;;13.54;38.1123;944.8234;;;;
2021/03/23 08:23:28;;;;;;;0.8;0.6;;;;;;;14.85;36.25488;944.8666;;;;
2021/03/23 08:25:53;;;;;;;1.3;0.9;;;;;;;15.47;34.48242;944.7927;;;;
2021/03/23 08:28:19;;;;;;;1.3;0.8;;;;;;;16.82;32.94336;944.7796;;;;
2021/03/23 08:30:47;;;;;;;0.6;0.5;;;;;;;15.98;32.37109;944.7719;;;;
2021/03/23 08:33:12;;;;;;;0.7;0.4;;;;;;;15.44;32.07715;944.7894;;;;
2021/03/23 08:35:37;;;;;;;3.4;0.9;;;;;;;13.83;34.17969;944.8744;;;;
2021/03/23 08:38:03;;;;;;;3.6;0.9;;;;;;;13.69;36.76855;944.8033;;;;
2021/03/23 08:40:28;;;;;;;1;0.5;;;;;;;14.09;34.47656;944.7772;;;;
2021/03/23 08:42:53;;;;;;;0.7;0.3;;;;;;;14.19;34.55273;944.74;;;;
2021/03/23 08:45:20;;;;;;;2.3;0.8;;;;;;;16.45;32.38184;944.7004;;;;
2021/03/23 08:47:45;;;;;;;1;0.5;;;;;;;16.04;32.31738;944.658;;;;
2021/03/23 08:50:11;;;;;;;1.6;0.9;;;;;;;15;31.91895;944.6505;;;;
2021/03/23 08:52:36;;;;;;;0.5;0.5;;;;;;;12.96;36.51074;944.7422;;;;
2021/03/23 08:55:01;;;;;;;1.5;0.7;;;;;;;12.52;37.55273;944.7246;;;;
2021/03/23 08:57:26;;;;;;;1;0.7;;;;;;;13.21;37.7041;944.6926;;;;
2021/03/23 08:59:51;;;;;;;1;0.7;;;;;;;14.58;34.50391;944.735;;;;
2021/03/23 09:02:16;;;;;;;2.3;1.4;;;;;;;14.54;34.59277;944.6827;;;;
2021/03/23 09:04:41;;;;;;;1.6;0.6;;;;;;;15.95;31.10938;944.6555;;;;
2021/03/23 09:07:09;;;;;;;4.5;0.6;;;;;;;16;31.10156;944.7059;;;;
2021/03/23 09:09:36;;;;;;;1.7;0.6;;;;;;;15.24;30.35547;944.6772;;;;
2021/03/23 09:12:02;;;;;;;0.6;0.6;;;;;;;13.59;33.54004;944.6301;;;;
2021/03/23 09:14:27;;;;;;;1.4;0.5;;;;;;;15.04;33.05176;944.63;;;;
2021/03/23 09:16:52;;;;;;;1.3;0.9;;;;;;;17.42;29.35742;944.5986;;;;
2021/03/23 09:19:17;;;;;;;2.6;0.7;;;;;;;18.03;28.02832;944.6046;;;;
2021/03/23 09:21:42;;;;;;;3.7;1.1;;;;;;;18.72;27.08301;944.559;;;;
2021/03/23 09:24:08;;;;;;;0.8;0.7;;;;;;;17.76;29.00977;944.6014;;;;
2021/03/23 09:26:33;;;;;;;1.8;0.4;;;;;;;19;26.49414;944.5978;;;;
2021/03/23 09:29:00;;;;;;;1;0.8;;;;;;;19.4;27.6377;944.5672;;;;
2021/03/23 09:31:29;;;;;;;0.8;0.6;;;;;;;19.08;26.38379;944.4881;;;;
2021/03/23 09:33:52;;;;;;;0.9;0.5;;;;;;;18.65;26.41602;944.4638;;;;
2021/03/23 09:36:20;;;;;;;0.9;0.6;;;;;;;18.86;26.46289;944.5334;;;;
2021/03/23 09:38:42;;;;;;;1.2;1.1;;;;;;;19.4;25.62207;944.5316;;;;
2021/03/23 09:41:07;;;;;;;0.4;0.3;;;;;;;18.91;25.81445;944.5578;;;;
2021/03/23 09:43:32;;;;;;;0.7;0.6;;;;;;;20.23;24.54883;944.3945;;;;
2021/03/23 09:45:57;;;;;;;0.6;0.5;;;;;;;18.49;26.91797;944.4561;;;;
2021/03/23 09:48:24;;;;;;;0.9;0.7;;;;;;;18.27;27.54395;944.4986;;;;
2021/03/23 09:50:49;;;;;;;0.9;0.6;;;;;;;18.91;26.00098;944.5094;;;;
2021/03/23 09:53:15;;;;;;;0.8;0.6;;;;;;;19.05;25.70605;944.4473;;;;
2021/03/23 09:55:41;;;;;;;0.8;0.5;;;;;;;18.08;27.77539;944.5162;;;;
2021/03/23 09:58:05;;;;;;;1;0.7;;;;;;;18.15;28.34863;944.5084;;;;
2021/03/23 10:00:30;;;;;;;2.5;0.8;;;;;;;18.57;26.77148;944.4214;;;;
2021/03/23 10:02:55;;;;;;;0.5;0.5;;;;;;;18.95;25.67676;944.4967;;;;
2021/03/23 10:05:20;;;;;;;0.7;0.6;;;;;;;18.35;26.96777;944.5719;;;;
2021/03/23 10:07:47;;;;;;;1.9;0.8;;;;;;;17.32;27.125;944.5466;;;;
2021/03/23 10:10:11;;;;;;;2.2;0.8;;;;;;;18.62;26.16992;944.5195;;;;
2021/03/23 10:12:36;;;;;;;0.5;0.5;;;;;;;19.2;25.41211;944.4542;;;;
2021/03/23 10:15:03;;;;;;;0.5;0.4;;;;;;;18.81;26.80957;944.5047;;;;
2021/03/23 10:17:28;;;;;;;0.5;0.5;;;;;;;18.8;25.08594;944.5089;;;;
2021/03/23 10:19:55;;;;;;;1.8;0.4;;;;;;;17.93;26.16309;944.4553;;;;
2021/03/23 10:22:20;;;;;;;1.9;0.8;;;;;;;18.85;25.33398;944.4794;;;;
2021/03/23 10:24:50;;;;;;;0.2;0.2;;;;;;;19.78;24.01074;944.4572;;;;
2021/03/23 10:27:15;;;;;;;1.7;0.8;;;;;;;19.74;26.52832;944.4949;;;;
2021/03/23 10:29:40;;;;;;;0.9;0.6;;;;;;;18.82;27.82227;944.4844;;;;
2021/03/23 10:32:06;;;;;;;0.5;0.5;;;;;;;17.66;28.5957;944.5698;;;;
2021/03/23 10:34:31;;;;;;;0.5;0.5;;;;;;;16.54;29.9248;944.5079;;;;
2021/03/23 10:36:56;;;;;;;3.4;0.8;;;;;;;17.15;28.48242;944.4587;;;;
2021/03/23 10:39:22;;;;;;;0.7;0.7;;;;;;;17.41;27.91895;944.4445;;;;
2021/03/23 10:41:47;;;;;;;7.2;1.1;;;;;;;17.7;28.1582;944.4666;;;;
2021/03/23 10:44:12;;;;;;;3.1;0.8;;;;;;;17.35;28.85449;944.4409;;;;
2021/03/23 10:46:38;;;;;;;1.6;0.8;;;;;;;18.16;27.35059;944.4219;;;;
2021/03/23 10:49:04;;;;;;;1.1;0.6;;;;;;;18.15;27.20996;944.4526;;;;
2021/03/23 10:51:29;;;;;;;0.4;0.3;;;;;;;17.99;27.38672;944.3943;;;;
2021/03/23 10:53:54;;;;;;;1.9;0.7;;;;;;;18.22;27.36621;944.3884;;;;
2021/03/23 10:56:19;;;;;;;1.4;0.6;;;;;;;17.8;28.47754;944.3715;;;;
2021/03/23 10:58:46;;;;;;;1.2;0.5;;;;;;;17.69;28.87695;944.3467;;;;
2021/03/23 11:01:12;;;;;;;0.7;0.6;;;;;;;17.75;28.2998;944.3059;;;;
2021/03/23 11:03:40;;;;;;;2.1;0.9;;;;;;;17.53;29.88672;944.2483;;;;
2021/03/23 11:06:03;;;;;;;1.1;0.7;;;;;;;17.67;29.80371;944.2757;;;;
2021/03/23 11:08:30;;;;;;;0.4;0.4;;;;;;;18.11;28.46289;944.3209;;;;
2021/03/23 11:10:55;;;;;;;0.9;0.6;;;;;;;16.97;28.60938;944.2745;;;;
2021/03/23 11:13:20;;;;;;;0.8;0.7;;;;;;;18.02;28.61914;944.2869;;;;
2021/03/23 11:15:47;;;;;;;1.8;0.7;;;;;;;18.09;28.20605;944.3502;;;;
2021/03/23 11:18:11;;;;;;;2.1;0.9;;;;;;;18.59;27.71484;944.3381;;;;
2021/03/23 11:20:37;;;;;;;1.7;1;;;;;;;18.89;27.26758;944.282;;;;
2021/03/23 11:23:04;;;;;;;3.2;0.8;;;;;;;18.97;26.76074;944.1324;;;;
2021/03/23 11:25:27;;;;;;;0.4;0.4;;;;;;;19.55;26.13184;944.222;;;;
2021/03/23 11:27:52;;;;;;;0.5;0.5;;;;;;;19.13;26.08301;944.2177;;;;
2021/03/23 11:30:17;;;;;;;1;0.5;;;;;;;19.77;26.09766;944.1962;;;;
2021/03/23 11:32:44;;;;;;;1.9;0.5;;;;;;;19;26.90234;944.17;;;;
2021/03/23 11:35:08;;;;;;;0.9;0.8;;;;;;;19.12;26.22266;944.2195;;;;
2021/03/23 11:37:33;;;;;;;8.2;0.6;;;;;;;18.99;26.62207;944.2137;;;;
2021/03/23 11:39:57;;;;;;;0.5;0.4;;;;;;;19.19;26.34277;944.2598;;;;
2021/03/23 11:42:27;;;;;;;1.4;0.7;;;;;;;20.08;25.04297;944.1834;;;;
2021/03/23 11:44:49;;;;;;;1.5;0.9;;;;;;;20.3;25.04297;944.192;;;;
2021/03/23 11:47:17;;;;;;;0.6;0.6;;;;;;;20.96;24.41406;944.1978;;;;
2021/03/23 11:49:39;;;;;;;1;0.6;;;;;;;21.06;23.96387;944.1838;;;;
2021/03/23 11:52:05;;;;;;;2.5;0.8;;;;;;;20.84;24.59473;944.1436;;;;
2021/03/23 11:54:30;;;;;;;2.9;0.8;;;;;;;19.44;26.46289;944.1291;;;;
2021/03/23 11:56:55;;;;;;;0.7;0.5;;;;;;;19.31;26.28027;944.1226;;;;
2021/03/23 11:59:20;;;;;;;1.3;0.8;;;;;;;19.33;26.12988;944.0924;;;;
2021/03/23 12:01:45;;;;;;;0.8;0.5;;;;;;;19.79;25.99414;944.0626;;;;
2021/03/23 12:04:10;;;;;;;1;0.7;;;;;;;20.41;25.15527;944.0105;;;;
2021/03/23 12:06:37;;;;;;;0.4;0.3;;;;;;;21.38;23.59473;944.0396;;;;
2021/03/23 12:09:03;;;;;;;0.9;0.6;;;;;;;21.61;23.39648;944.0441;;;;
2021/03/23 12:11:29;;;;;;;0.2;0.2;;;;;;;20.7;23.24219;943.9641;;;;
2021/03/23 12:13:54;;;;;;;0.4;0.4;;;;;;;21.45;23.21191;944.005;;;;
2021/03/23 12:16:23;;;;;;;1;0.6;;;;;;;21.83;23.16211;943.8943;;;;
2021/03/23 12:18:48;;;;;;;0.8;0.7;;;;;;;21.91;22.9668;943.8898;;;;
2021/03/23 12:21:14;;;;;;;2.2;0.8;;;;;;;21.75;23.27441;943.9091;;;;
2021/03/23 12:23:39;;;;;;;5.6;1;;;;;;;21.29;23.46094;943.7866;;;;
2021/03/23 12:26:05;;;;;;;1;0.7;;;;;;;21.47;23.37695;943.7955;;;;
2021/03/23 12:28:30;;;;;;;2.1;0.6;;;;;;;20.83;23.60059;943.812;;;;
2021/03/23 12:30:57;;;;;;;0.8;0.6;;;;;;;20.16;25.01172;943.7583;;;;
2021/03/23 12:33:22;;;;;;;0.2;0.2;;;;;;;19.7;25.88379;943.7586;;;;
2021/03/23 12:35:50;;;;;;;0.5;0.3;;;;;;;19.44;25.54199;943.7527;;;;
2021/03/23 12:38:15;;;;;;;0.5;0.5;;;;;;;18.76;26.09668;943.6944;;;;
2021/03/23 12:40:40;;;;;;;1.6;0.8;;;;;;;20.15;25.60645;943.6559;;;;
2021/03/23 12:43:12;;;;;;;0.4;0.4;;;;;;;20.51;25.18359;943.6206;;;;
2021/03/23 12:45:31;;;;;;;2.7;0.7;;;;;;;19.59;26.47266;943.6769;;;;
2021/03/23 12:47:57;;;;;;;1;0.6;;;;;;;20.94;24.78809;943.62;;;;
2021/03/23 12:50:23;;;;;;;1.2;0.9;;;;;;;20.74;24.94043;943.5999;;;;
2021/03/23 12:52:48;;;;;;;1.1;0.6;;;;;;;20.33;25.66406;943.5838;;;;
2021/03/23 12:55:13;;;;;;;1.3;0.6;;;;;;;19.75;25.7002;943.5865;;;;
2021/03/23 12:57:39;;;;;;;1.4;0.4;;;;;;;19.59;26.56543;943.5833;;;;
2021/03/23 13:00:04;;;;;;;2.8;1;;;;;;;20;25.87793;943.5709;;;;
2021/03/23 13:02:29;;;;;;;1.7;0.7;;;;;;;20.38;25.88867;943.5214;;;;
2021/03/23 13:04:54;;;;;;;0.4;0.3;;;;;;;19.93;26.10742;943.5302;;;;
2021/03/23 13:07:20;;;;;;;4.5;0.9;;;;;;;18.04;28.24902;943.585;;;;
2021/03/23 13:09:45;;;;;;;0.5;0.5;;;;;;;17.73;28.96094;943.5666;;;;
2021/03/23 13:12:10;;;;;;;1;0.8;;;;;;;18.41;28.74902;943.61;;;;
2021/03/23 13:14:36;;;;;;;2.5;0.6;;;;;;;18.33;27.61621;943.6215;;;;
2021/03/23 13:17:00;;;;;;;0.5;0.4;;;;;;;16.64;31.07715;943.5011;;;;
2021/03/23 13:19:26;;;;;;;2.4;1.2;;;;;;;16.81;30.41699;943.5133;;;;
2021/03/23 13:21:51;;;;;;;0.4;0.3;;;;;;;16.64;30.91602;943.5566;;;;
2021/03/23 13:24:16;;;;;;;1.6;0.6;;;;;;;16.42;32.21875;943.5349;;;;
2021/03/23 13:26:42;;;;;;;2.5;0.7;;;;;;;16.8;31.29688;943.6219;;;;
2021/03/23 13:29:07;;;;;;;0.4;0.4;;;;;;;16.8;30.18457;943.6042;;;;
2021/03/23 13:31:32;;;;;;;4.2;0.6;;;;;;;17.48;29.45508;943.6181;;;;
2021/03/23 13:33:58;;;;;;;1.6;0.7;;;;;;;16.73;31.50098;943.5595;;;;
2021/03/23 13:36:23;;;;;;;0.8;0.6;;;;;;;16.84;31.53223;943.6236;;;;
2021/03/23 13:38:50;;;;;;;3.4;0.7;;;;;;;17.59;29.02051;943.6575;;;;
2021/03/23 13:41:16;;;;;;;2.3;1.3;;;;;;;17.23;30.50488;943.5345;;;;
2021/03/23 13:43:42;;;;;;;1.2;0.6;;;;;;;17.3;30.56738;943.6169;;;;
2021/03/23 13:46:07;;;;;;;1.3;0.9;;;;;;;16.94;30.26465;943.5811;;;;
2021/03/23 13:48:33;;;;;;;2.1;0.7;;;;;;;16.87;30.65332;943.5968;;;;
2021/03/23 13:50:58;;;;;;;1.1;0.7;;;;;;;15.98;32.26758;943.5967;;;;
2021/03/23 13:53:23;;;;;;;0.7;0.6;;;;;;;15.2;32.86719;943.5063;;;;
2021/03/23 13:55:50;;;;;;;1.4;0.8;;;;;;;14.58;34.6416;943.5079;;;;
2021/03/23 13:58:15;;;;;;;1.5;0.8;;;;;;;14.24;35.08691;943.4807;;;;
2021/03/23 14:00:43;;;;;;;0.7;0.7;;;;;;;14.12;35.90723;943.5503;;;;
2021/03/23 14:03:08;;;;;;;0.9;0.9;;;;;;;13.71;36.48242;943.4828;;;;
2021/03/23 14:05:33;;;;;;;0.8;0.6;;;;;;;12.98;38.36133;943.5633;;;;
2021/03/23 14:07:58;;;;;;;2.8;1.4;;;;;;;13.42;37.95215;943.5383;;;;
2021/03/23 14:10:24;;;;;;;1.1;0.9;;;;;;;12.71;39.09473;943.483;;;;
2021/03/23 14:12:49;;;;;;;0.9;0.8;;;;;;;12.61;39.46582;943.4437;;;;
2021/03/23 14:15:15;;;;;;;3.9;0.9;;;;;;;11.9;40.82031;943.4314;;;;
2021/03/23 14:17:41;;;;;;;1.9;0.9;;;;;;;11.78;42.53809;943.4309;;;;
2021/03/23 14:20:08;;;;;;;1.9;0.8;;;;;;;11.59;41.14648;943.3691;;;;
2021/03/23 14:22:33;;;;;;;2.2;1.2;;;;;;;11.5;43.58594;943.4356;;;;
2021/03/23 14:24:58;;;;;;;4.3;1;;;;;;;11.21;43.04199;943.4618;;;;
2021/03/23 14:27:23;;;;;;;1;0.5;;;;;;;10.89;43.51367;943.3784;;;;
2021/03/23 14:29:50;;;;;;;2.8;1;;;;;;;10.82;44.11133;943.3876;;;;
2021/03/23 14:32:15;;;;;;;2.1;1.3;;;;;;;10.86;44.25293;943.3859;;;;
2021/03/23 14:34:40;;;;;;;1;0.5;;;;;;;10.85;44.77832;943.3578;;;;
2021/03/23 14:37:08;;;;;;;2.3;1.4;;;;;;;10.63;43.77344;943.2823;;;;
2021/03/23 14:39:31;;;;;;;0.9;0.4;;;;;;;10.16;45.41406;943.3745;;;;
2021/03/23 14:41:57;;;;;;;1.1;0.9;;;;;;;10.03;47.66895;943.2733;;;;
2021/03/23 14:44:22;;;;;;;1.4;0.9;;;;;;;10.18;47.41211;943.3574;;;;
2021/03/23 14:46:49;;;;;;;1.2;0.8;;;;;;;10.03;46.55176;943.3378;;;;
2021/03/23 14:49:12;;;;;;;4.7;0.7;;;;;;;9.89;48.04199;943.3315;;;;
2021/03/23 14:51:37;;;;;;;1.9;0.8;;;;;;;10.04;47.56836;943.3214;;;;
2021/03/23 14:54:03;;;;;;;3.1;0.8;;;;;;;9.89;47.00488;943.3546;;;;
2021/03/23 14:56:27;;;;;;;1.1;0.5;;;;;;;9.75;47.3418;943.3721;;;;
2021/03/23 14:58:53;;;;;;;1.4;0.8;;;;;;;9.42;49.24219;943.3427;;;;
2021/03/23 15:01:20;;;;;;;0.8;0.7;;;;;;;9.23;48.58301;943.3152;;;;
2021/03/23 15:03:45;;;;;;;0.9;0.7;;;;;;;9.07;48.87109;943.3444;;;;
2021/03/23 15:06:11;;;;;;;0.4;0.4;;;;;;;9.04;49.32324;943.3262;;;;
2021/03/23 15:08:37;;;;;;;1.1;1;;;;;;;9.1;48.77344;943.3539;;;;
2021/03/23 15:11:05;;;;;;;1.4;0.7;;;;;;;8.96;50.16699;943.3606;;;;
2021/03/23 15:13:26;;;;;;;1.3;1;;;;;;;8.5;50.39844;943.3807;;;;
2021/03/23 15:15:55;;;;;;;1.4;0.9;;;;;;;8.26;51.55273;943.3945;;;;
2021/03/23 15:18:20;;;;;;;0.7;0.5;;;;;;;8.29;51.52051;943.3848;;;;
2021/03/23 15:20:45;;;;;;;0.6;0.4;;;;;;;8.18;53.65527;943.4327;;;;
2021/03/23 15:23:10;;;;;;;0.5;0.5;;;;;;;8.03;54.37402;943.3921;;;;
2021/03/23 15:25:38;;;;;;;5.3;0.9;;;;;;;8.18;52.4502;943.4047;;;;
2021/03/23 15:28:04;;;;;;;1.6;0.8;;;;;;;8.16;51.93848;943.459;;;;
2021/03/23 15:30:29;;;;;;;2;1.2;;;;;;;8.32;51.99023;943.4263;;;;
2021/03/23 15:32:54;;;;;;;0.8;0.8;;;;;;;8.47;51.98535;943.4084;;;;
2021/03/23 15:35:19;;;;;;;1.5;0.9;;;;;;;8.73;50.83496;943.4225;;;;
2021/03/23 15:37:44;;;;;;;0.7;0.7;;;;;;;8.89;51.05859;943.4225;;;;
2021/03/23 15:40:10;;;;;;;0.5;0.5;;;;;;;8.76;50.22461;943.443;;;;
2021/03/23 15:42:35;;;;;;;6.9;1.2;;;;;;;8.78;50.66895;943.4537;;;;
2021/03/23 15:45:00;;;;;;;0.8;0.7;;;;;;;8.89;51.0459;943.4661;;;;
2021/03/23 15:47:25;;;;;;;1.8;0.6;;;;;;;8.57;50.79297;943.4514;;;;
2021/03/23 15:49:50;;;;;;;0.7;0.6;;;;;;;8.03;52.0918;943.4451;;;;
2021/03/23 15:52:15;;;;;;;0.6;0.6;;;;;;;7.92;53.86035;943.4229;;;;
2021/03/23 15:54:41;;;;;;;0.7;0.5;;;;;;;7.83;54.54004;943.4155;;;;
2021/03/23 15:57:07;;;;;;;1.7;1.1;;;;;;;7.9;54.78906;943.3756;;;;
2021/03/23 15:59:31;;;;;;;0.8;0.8;;;;;;;7.9;55.86621;943.3867;;;;
2021/03/23 16:01:58;;;;;;;2;1.1;;;;;;;7.94;55.88184;943.2815;;;;
2021/03/23 16:04:23;;;;;;;1.9;1.2;;;;;;;8.08;55.84375;943.2918;;;;
2021/03/23 16:06:49;;;;;;;4.4;1;;;;;;;8;55.57324;943.2736;;;;
2021/03/23 16:09:14;;;;;;;2.5;0.9;;;;;;;8.26;57.99219;943.2343;;;;
2021/03/23 16:11:41;;;;;;;2.2;1.3;;;;;;;8.1;55.80078;943.2654;;;;
2021/03/23 16:14:10;;;;;;;1.5;1.2;;;;;;;8.23;55.88672;943.278;;;;
2021/03/23 16:16:31;;;;;;;1;0.9;;;;;;;8.16;57.84277;943.3116;;;;
2021/03/23 16:18:58;;;;;;;2.3;0.9;;;;;;;8.04;57.96191;943.3098;;;;
2021/03/23 16:21:23;;;;;;;2.4;0.8;;;;;;;8.05;57.50879;943.3149;;;;
2021/03/23 16:23:49;;;;;;;4.8;1.5;;;;;;;8;56.93457;943.3591;;;;
2021/03/23 16:26:14;;;;;;;3.7;2;;;;;;;8.06;57.94141;943.4024;;;;